sensor_id;sensor_type;location;lat;lon;timestamp;temperature;humidity
12520;DHT22;6325;49.540;8.364;2024-01-25T00:01:53;10.70;99.90
12520;DHT22;6325;49.540;8.364;2024-01-25T00:04:20;11.20;99.90
12520;DHT22;6325;49.540;8.364;2024-01-25T00:06:50;10.40;99.90
12520;DHT22;6325;49.540;8.364;2024-01-25T00:09:17;10.90;99.90
12520;DHT22;6325;49.540;8.364;2024-01-25T00:11:44;11.10;99.90
12520;DHT22;6325;49.540;8.364;2024-01-25T00:14:11;11.30;99.90
12520;DHT22;6325;49.540;8.364;2024-01-25T00:16:40;11.40;99.90
12520;DHT22;6325;49.540;8.364;2024-01-25T00:19:08;11.30;99.90
12520;DHT22;6325;49.540;8.364;2024-01-25T00:21:35;10.90;99.90
12520;DHT22;6325;49.540;8.364;2024-01-25T00:24:03;10.90;99.90
12520;DHT22;6325;49.540;8.364;2024-01-25T00:26:30;10.80;99.90
12520;DHT22;6325;49.540;8.364;2024-01-25T00:28:57;10.80;99.90
12520;DHT22;6325;49.540;8.364;2024-01-25T00:31:24;10.70;99.90
12520;DHT22;6325;49.540;8.364;2024-01-25T00:33:51;11.10;99.90
12520;DHT22;6325;49.540;8.364;2024-01-25T00:36:18;11.30;99.90
12520;DHT22;6325;49.540;8.364;2024-01-25T00:38:46;11.30;99.90
12520;DHT22;6325;49.540;8.364;2024-01-25T00:41:17;10.70;99.90
12520;DHT22;6325;49.540;8.364;2024-01-25T00:43:46;10.10;99.90
12520;DHT22;6325;49.540;8.364;2024-01-25T00:46:14;10.10;99.90
12520;DHT22;6325;49.540;8.364;2024-01-25T00:48:41;10.10;99.90
12520;DHT22;6325;49.540;8.364;2024-01-25T00:51:13;10.30;99.90
12520;DHT22;6325;49.540;8.364;2024-01-25T00:53:41;10.70;99.90
12520;DHT22;6325;49.540;8.364;2024-01-25T00:56:10;10.90;99.90
12520;DHT22;6325;49.540;8.364;2024-01-25T00:58:39;10.90;99.90
12520;DHT22;6325;49.540;8.364;2024-01-25T01:01:07;10.30;99.90
12520;DHT22;6325;49.540;8.364;2024-01-25T01:03:35;10.80;99.90
12520;DHT22;6325;49.540;8.364;2024-01-25T01:06:03;11.10;99.90
12520;DHT22;6325;49.540;8.364;2024-01-25T01:08:31;10.00;99.90
12520;DHT22;6325;49.540;8.364;2024-01-25T01:10:58;10.90;99.90
12520;DHT22;6325;49.540;8.364;2024-01-25T01:13:24;10.70;99.90
12520;DHT22;6325;49.540;8.364;2024-01-25T01:15:53;10.50;99.90
12520;DHT22;6325;49.540;8.364;2024-01-25T01:18:20;10.10;99.90
12520;DHT22;6325;49.540;8.364;2024-01-25T01:20:47;10.30;99.90
12520;DHT22;6325;49.540;8.364;2024-01-25T01:23:14;10.60;99.90
12520;DHT22;6325;49.540;8.364;2024-01-25T01:25:41;10.20;99.90
12520;DHT22;6325;49.540;8.364;2024-01-25T01:28:08;10.50;99.90
12520;DHT22;6325;49.540;8.364;2024-01-25T01:30:35;10.10;99.90
12520;DHT22;6325;49.540;8.364;2024-01-25T01:33:04;10.40;99.90
12520;DHT22;6325;49.540;8.364;2024-01-25T01:35:31;10.00;99.90
12520;DHT22;6325;49.540;8.364;2024-01-25T01:37:58;10.30;99.90
12520;DHT22;6325;49.540;8.364;2024-01-25T01:40:25;9.90;99.90
12520;DHT22;6325;49.540;8.364;2024-01-25T01:42:52;9.90;99.90
12520;DHT22;6325;49.540;8.364;2024-01-25T01:45:27;9.90;99.90
12520;DHT22;6325;49.540;8.364;2024-01-25T01:47:55;9.70;99.90
12520;DHT22;6325;49.540;8.364;2024-01-25T01:50:24;10.00;99.90
12520;DHT22;6325;49.540;8.364;2024-01-25T01:52:52;10.30;99.90
12520;DHT22;6325;49.540;8.364;2024-01-25T01:55:22;10.30;99.90
12520;DHT22;6325;49.540;8.364;2024-01-25T01:57:49;9.70;99.90
12520;DHT22;6325;49.540;8.364;2024-01-25T02:00:17;10.00;99.90
12520;DHT22;6325;49.540;8.364;2024-01-25T02:02:44;10.00;99.90
12520;DHT22;6325;49.540;8.364;2024-01-25T02:05:11;9.90;99.90
12520;DHT22;6325;49.540;8.364;2024-01-25T02:07:40;9.90;99.90
12520;DHT22;6325;49.540;8.364;2024-01-25T02:10:08;9.80;99.90
12520;DHT22;6325;49.540;8.364;2024-01-25T02:12:35;9.50;99.90
12520;DHT22;6325;49.540;8.364;2024-01-25T02:15:02;9.80;99.90
12520;DHT22;6325;49.540;8.364;2024-01-25T02:17:29;10.10;99.90
12520;DHT22;6325;49.540;8.364;2024-01-25T02:19:56;10.40;99.90
12520;DHT22;6325;49.540;8.364;2024-01-25T02:22:25;9.70;99.90
12520;DHT22;6325;49.540;8.364;2024-01-25T02:24:52;9.80;99.90
12520;DHT22;6325;49.540;8.364;2024-01-25T02:27:19;10.30;99.90
12520;DHT22;6325;49.540;8.364;2024-01-25T02:29:46;9.90;99.90
12520;DHT22;6325;49.540;8.364;2024-01-25T02:32:13;9.90;99.90
12520;DHT22;6325;49.540;8.364;2024-01-25T02:34:40;10.40;99.90
12520;DHT22;6325;49.540;8.364;2024-01-25T02:37:06;9.60;99.90
12520;DHT22;6325;49.540;8.364;2024-01-25T02:39:35;9.60;99.90
12520;DHT22;6325;49.540;8.364;2024-01-25T02:42:03;9.80;99.90
12520;DHT22;6325;49.540;8.364;2024-01-25T02:44:30;9.70;99.90
12520;DHT22;6325;49.540;8.364;2024-01-25T02:46:57;9.40;99.90
12520;DHT22;6325;49.540;8.364;2024-01-25T02:49:24;10.00;99.90
12520;DHT22;6325;49.540;8.364;2024-01-25T02:51:51;9.90;99.90
12520;DHT22;6325;49.540;8.364;2024-01-25T02:54:18;10.10;99.90
12520;DHT22;6325;49.540;8.364;2024-01-25T02:56:47;9.90;99.90
12520;DHT22;6325;49.540;8.364;2024-01-25T02:59:14;9.90;99.90
12520;DHT22;6325;49.540;8.364;2024-01-25T03:01:41;9.90;99.90
12520;DHT22;6325;49.540;8.364;2024-01-25T03:04:08;10.10;99.90
12520;DHT22;6325;49.540;8.364;2024-01-25T03:06:40;9.80;99.90
12520;DHT22;6325;49.540;8.364;2024-01-25T03:09:15;9.90;99.90
12520;DHT22;6325;49.540;8.364;2024-01-25T03:11:48;9.90;99.90
12520;DHT22;6325;49.540;8.364;2024-01-25T03:14:26;9.40;99.90
12520;DHT22;6325;49.540;8.364;2024-01-25T03:16:56;9.50;99.90
12520;DHT22;6325;49.540;8.364;2024-01-25T03:19:32;9.50;99.90
12520;DHT22;6325;49.540;8.364;2024-01-25T03:22:14;9.80;99.90
12520;DHT22;6325;49.540;8.364;2024-01-25T03:24:57;9.60;99.90
12520;DHT22;6325;49.540;8.364;2024-01-25T03:27:47;9.30;99.90
12520;DHT22;6325;49.540;8.364;2024-01-25T03:30:38;9.50;99.90
12520;DHT22;6325;49.540;8.364;2024-01-25T03:33:13;8.70;99.90
12520;DHT22;6325;49.540;8.364;2024-01-25T03:35:57;9.30;99.90
12520;DHT22;6325;49.540;8.364;2024-01-25T03:38:30;9.10;99.90
12520;DHT22;6325;49.540;8.364;2024-01-25T03:41:05;9.30;99.90
12520;DHT22;6325;49.540;8.364;2024-01-25T03:43:52;9.00;99.90
12520;DHT22;6325;49.540;8.364;2024-01-25T03:46:21;9.40;99.90
12520;DHT22;6325;49.540;8.364;2024-01-25T03:49:07;9.10;99.90
12520;DHT22;6325;49.540;8.364;2024-01-25T03:51:42;8.30;99.90
12520;DHT22;6325;49.540;8.364;2024-01-25T03:54:29;8.90;99.90
12520;DHT22;6325;49.540;8.364;2024-01-25T03:57:06;8.40;99.90
12520;DHT22;6325;49.540;8.364;2024-01-25T03:59:50;8.60;99.90
12520;DHT22;6325;49.540;8.364;2024-01-25T04:02:25;8.20;99.90
12520;DHT22;6325;49.540;8.364;2024-01-25T04:04:59;8.40;99.90
12520;DHT22;6325;49.540;8.364;2024-01-25T04:07:31;8.00;99.90
12520;DHT22;6325;49.540;8.364;2024-01-25T04:10:10;8.00;99.90
12520;DHT22;6325;49.540;8.364;2024-01-25T04:12:46;8.00;99.90
12520;DHT22;6325;49.540;8.364;2024-01-25T04:15:26;8.30;99.90
12520;DHT22;6325;49.540;8.364;2024-01-25T04:18:00;7.70;99.90
12520;DHT22;6325;49.540;8.364;2024-01-25T04:20:40;7.00;99.90
12520;DHT22;6325;49.540;8.364;2024-01-25T04:23:21;7.90;99.90
12520;DHT22;6325;49.540;8.364;2024-01-25T04:25:57;7.80;99.90
12520;DHT22;6325;49.540;8.364;2024-01-25T04:28:32;7.60;99.90
12520;DHT22;6325;49.540;8.364;2024-01-25T04:31:16;7.20;99.90
12520;DHT22;6325;49.540;8.364;2024-01-25T04:33:50;8.00;99.90
12520;DHT22;6325;49.540;8.364;2024-01-25T04:36:28;7.50;99.90
12520;DHT22;6325;49.540;8.364;2024-01-25T04:39:00;7.50;99.90
12520;DHT22;6325;49.540;8.364;2024-01-25T04:41:30;7.50;99.90
12520;DHT22;6325;49.540;8.364;2024-01-25T04:44:00;8.30;99.90
12520;DHT22;6325;49.540;8.364;2024-01-25T04:46:46;7.90;99.90
12520;DHT22;6325;49.540;8.364;2024-01-25T04:49:21;8.10;99.90
12520;DHT22;6325;49.540;8.364;2024-01-25T04:51:58;8.30;99.90
12520;DHT22;6325;49.540;8.364;2024-01-25T04:54:36;7.40;99.90
12520;DHT22;6325;49.540;8.364;2024-01-25T04:57:09;8.30;99.90
12520;DHT22;6325;49.540;8.364;2024-01-25T04:59:45;8.40;99.90
12520;DHT22;6325;49.540;8.364;2024-01-25T05:02:38;8.50;99.90
12520;DHT22;6325;49.540;8.364;2024-01-25T05:05:17;8.60;99.90
12520;DHT22;6325;49.540;8.364;2024-01-25T05:08:01;8.70;99.90
12520;DHT22;6325;49.540;8.364;2024-01-25T05:10:34;8.20;99.90
12520;DHT22;6325;49.540;8.364;2024-01-25T05:13:13;8.60;99.90
12520;DHT22;6325;49.540;8.364;2024-01-25T05:16:07;8.70;99.90
12520;DHT22;6325;49.540;8.364;2024-01-25T05:18:45;8.20;99.90
12520;DHT22;6325;49.540;8.364;2024-01-25T05:21:16;7.60;99.90
12520;DHT22;6325;49.540;8.364;2024-01-25T05:23:46;7.80;99.90
12520;DHT22;6325;49.540;8.364;2024-01-25T05:26:20;8.50;99.90
12520;DHT22;6325;49.540;8.364;2024-01-25T05:29:02;8.80;99.90
12520;DHT22;6325;49.540;8.364;2024-01-25T05:31:42;8.20;99.90
12520;DHT22;6325;49.540;8.364;2024-01-25T05:34:33;7.90;99.90
12520;DHT22;6325;49.540;8.364;2024-01-25T05:37:11;8.00;99.90
12520;DHT22;6325;49.540;8.364;2024-01-25T05:39:45;7.80;99.90
12520;DHT22;6325;49.540;8.364;2024-01-25T05:42:18;7.90;99.90
12520;DHT22;6325;49.540;8.364;2024-01-25T05:44:55;8.10;99.90
12520;DHT22;6325;49.540;8.364;2024-01-25T05:47:34;7.80;99.90
12520;DHT22;6325;49.540;8.364;2024-01-25T05:50:08;7.20;99.90
12520;DHT22;6325;49.540;8.364;2024-01-25T05:52:47;8.00;99.90
12520;DHT22;6325;49.540;8.364;2024-01-25T05:55:30;7.90;99.90
12520;DHT22;6325;49.540;8.364;2024-01-25T05:58:03;7.80;99.90
12520;DHT22;6325;49.540;8.364;2024-01-25T06:00:47;7.90;99.90
12520;DHT22;6325;49.540;8.364;2024-01-25T06:03:27;7.80;99.90
12520;DHT22;6325;49.540;8.364;2024-01-25T06:06:10;7.80;99.90
12520;DHT22;6325;49.540;8.364;2024-01-25T06:08:48;7.90;99.90
12520;DHT22;6325;49.540;8.364;2024-01-25T06:11:35;7.30;99.90
12520;DHT22;6325;49.540;8.364;2024-01-25T06:14:09;7.60;99.90
12520;DHT22;6325;49.540;8.364;2024-01-25T06:16:41;7.10;99.90
12520;DHT22;6325;49.540;8.364;2024-01-25T06:19:22;7.30;99.90
12520;DHT22;6325;49.540;8.364;2024-01-25T06:22:01;7.20;99.90
12520;DHT22;6325;49.540;8.364;2024-01-25T06:24:38;7.40;99.90
12520;DHT22;6325;49.540;8.364;2024-01-25T06:27:05;7.10;99.90
12520;DHT22;6325;49.540;8.364;2024-01-25T06:29:34;7.10;99.90
12520;DHT22;6325;49.540;8.364;2024-01-25T06:32:08;7.30;99.90
12520;DHT22;6325;49.540;8.364;2024-01-25T06:34:46;7.20;99.90
12520;DHT22;6325;49.540;8.364;2024-01-25T06:37:25;7.00;99.90
12520;DHT22;6325;49.540;8.364;2024-01-25T06:39:59;7.70;99.90
12520;DHT22;6325;49.540;8.364;2024-01-25T06:42:33;7.40;99.90
12520;DHT22;6325;49.540;8.364;2024-01-25T06:45:06;7.80;99.90
12520;DHT22;6325;49.540;8.364;2024-01-25T06:47:43;7.60;99.90
12520;DHT22;6325;49.540;8.364;2024-01-25T06:50:15;7.90;99.90
12520;DHT22;6325;49.540;8.364;2024-01-25T06:52:45;7.30;99.90
12520;DHT22;6325;49.540;8.364;2024-01-25T06:55:14;7.30;99.90
12520;DHT22;6325;49.540;8.364;2024-01-25T06:57:45;7.60;99.90
12520;DHT22;6325;49.540;8.364;2024-01-25T07:00:12;7.30;99.90
12520;DHT22;6325;49.540;8.364;2024-01-25T07:02:57;7.60;99.90
12520;DHT22;6325;49.540;8.364;2024-01-25T07:05:27;7.60;99.90
12520;DHT22;6325;49.540;8.364;2024-01-25T07:08:15;7.60;99.90
12520;DHT22;6325;49.540;8.364;2024-01-25T07:11:08;7.50;99.90
12520;DHT22;6325;49.540;8.364;2024-01-25T07:13:43;7.10;99.90
12520;DHT22;6325;49.540;8.364;2024-01-25T07:16:11;7.20;99.90
12520;DHT22;6325;49.540;8.364;2024-01-25T07:18:40;7.30;99.90
12520;DHT22;6325;49.540;8.364;2024-01-25T07:21:06;7.20;99.90
12520;DHT22;6325;49.540;8.364;2024-01-25T07:23:34;7.60;99.90
12520;DHT22;6325;49.540;8.364;2024-01-25T07:26:01;7.40;99.90
12520;DHT22;6325;49.540;8.364;2024-01-25T07:28:28;7.00;99.90
12520;DHT22;6325;49.540;8.364;2024-01-25T07:30:54;7.40;99.90
12520;DHT22;6325;49.540;8.364;2024-01-25T07:33:21;6.40;99.90
12520;DHT22;6325;49.540;8.364;2024-01-25T07:35:48;7.40;99.90
12520;DHT22;6325;49.540;8.364;2024-01-25T07:38:15;6.80;99.90
12520;DHT22;6325;49.540;8.364;2024-01-25T07:40:43;6.90;99.90
12520;DHT22;6325;49.540;8.364;2024-01-25T07:43:10;7.00;99.90
12520;DHT22;6325;49.540;8.364;2024-01-25T07:45:37;6.80;99.90
12520;DHT22;6325;49.540;8.364;2024-01-25T07:48:05;7.20;99.90
12520;DHT22;6325;49.540;8.364;2024-01-25T07:50:33;7.30;99.90
12520;DHT22;6325;49.540;8.364;2024-01-25T07:52:59;6.50;99.90
12520;DHT22;6325;49.540;8.364;2024-01-25T07:55:28;7.40;99.90
12520;DHT22;6325;49.540;8.364;2024-01-25T07:57:56;7.10;99.90
12520;DHT22;6325;49.540;8.364;2024-01-25T08:00:23;7.30;99.90
12520;DHT22;6325;49.540;8.364;2024-01-25T08:02:49;6.90;99.90
12520;DHT22;6325;49.540;8.364;2024-01-25T08:05:16;7.30;99.90
12520;DHT22;6325;49.540;8.364;2024-01-25T08:07:45;6.80;99.90
12520;DHT22;6325;49.540;8.364;2024-01-25T08:10:11;6.90;99.90
12520;DHT22;6325;49.540;8.364;2024-01-25T08:12:38;6.30;99.90
12520;DHT22;6325;49.540;8.364;2024-01-25T08:15:09;7.00;99.90
12520;DHT22;6325;49.540;8.364;2024-01-25T08:17:36;7.70;99.90
12520;DHT22;6325;49.540;8.364;2024-01-25T08:20:04;7.00;99.90
12520;DHT22;6325;49.540;8.364;2024-01-25T08:22:32;6.90;99.90
12520;DHT22;6325;49.540;8.364;2024-01-25T08:24:58;7.40;99.90
12520;DHT22;6325;49.540;8.364;2024-01-25T08:27:25;7.40;99.90
12520;DHT22;6325;49.540;8.364;2024-01-25T08:29:52;8.10;99.90
12520;DHT22;6325;49.540;8.364;2024-01-25T08:32:20;7.50;99.90
12520;DHT22;6325;49.540;8.364;2024-01-25T08:34:47;7.90;99.90
12520;DHT22;6325;49.540;8.364;2024-01-25T08:37:13;8.40;99.90
12520;DHT22;6325;49.540;8.364;2024-01-25T08:39:40;7.80;99.90
12520;DHT22;6325;49.540;8.364;2024-01-25T08:42:08;7.80;99.90
12520;DHT22;6325;49.540;8.364;2024-01-25T08:44:38;7.90;99.90
12520;DHT22;6325;49.540;8.364;2024-01-25T08:47:05;8.20;99.90
12520;DHT22;6325;49.540;8.364;2024-01-25T08:49:38;7.50;99.90
12520;DHT22;6325;49.540;8.364;2024-01-25T08:52:05;8.50;99.90
12520;DHT22;6325;49.540;8.364;2024-01-25T08:54:32;8.20;99.90
12520;DHT22;6325;49.540;8.364;2024-01-25T08:56:59;8.50;99.90
12520;DHT22;6325;49.540;8.364;2024-01-25T08:59:26;8.60;99.90
12520;DHT22;6325;49.540;8.364;2024-01-25T09:01:55;8.30;99.90
12520;DHT22;6325;49.540;8.364;2024-01-25T09:04:21;8.30;99.90
12520;DHT22;6325;49.540;8.364;2024-01-25T09:06:49;8.50;99.90
12520;DHT22;6325;49.540;8.364;2024-01-25T09:09:16;8.60;99.90
12520;DHT22;6325;49.540;8.364;2024-01-25T09:11:43;8.60;99.90
12520;DHT22;6325;49.540;8.364;2024-01-25T09:14:09;8.70;99.90
12520;DHT22;6325;49.540;8.364;2024-01-25T09:16:36;8.70;99.90
12520;DHT22;6325;49.540;8.364;2024-01-25T09:19:04;8.60;99.90
12520;DHT22;6325;49.540;8.364;2024-01-25T09:21:30;9.10;99.90
12520;DHT22;6325;49.540;8.364;2024-01-25T09:24:00;8.60;99.90
12520;DHT22;6325;49.540;8.364;2024-01-25T09:26:26;9.00;99.90
12520;DHT22;6325;49.540;8.364;2024-01-25T09:28:53;9.70;99.90
12520;DHT22;6325;49.540;8.364;2024-01-25T09:31:20;9.40;99.90
12520;DHT22;6325;49.540;8.364;2024-01-25T09:33:47;9.50;99.90
12520;DHT22;6325;49.540;8.364;2024-01-25T09:36:13;9.50;99.90
12520;DHT22;6325;49.540;8.364;2024-01-25T09:38:40;9.10;99.90
12520;DHT22;6325;49.540;8.364;2024-01-25T09:41:08;9.30;99.90
12520;DHT22;6325;49.540;8.364;2024-01-25T09:43:35;9.90;99.90
12520;DHT22;6325;49.540;8.364;2024-01-25T09:46:05;9.90;99.90
12520;DHT22;6325;49.540;8.364;2024-01-25T09:48:33;10.40;99.90
12520;DHT22;6325;49.540;8.364;2024-01-25T09:50:59;9.90;99.90
12520;DHT22;6325;49.540;8.364;2024-01-25T09:53:26;10.40;99.90
12520;DHT22;6325;49.540;8.364;2024-01-25T09:56:00;10.20;99.90
12520;DHT22;6325;49.540;8.364;2024-01-25T09:58:37;10.50;99.90
12520;DHT22;6325;49.540;8.364;2024-01-25T10:01:08;10.80;99.90
12520;DHT22;6325;49.540;8.364;2024-01-25T10:03:35;10.60;99.90
12520;DHT22;6325;49.540;8.364;2024-01-25T10:06:02;10.30;99.90
12520;DHT22;6325;49.540;8.364;2024-01-25T10:08:29;11.20;99.90
12520;DHT22;6325;49.540;8.364;2024-01-25T10:10:56;10.70;99.90
12520;DHT22;6325;49.540;8.364;2024-01-25T10:13:23;10.20;99.90
12520;DHT22;6325;49.540;8.364;2024-01-25T10:15:51;10.80;99.90
12520;DHT22;6325;49.540;8.364;2024-01-25T10:18:18;11.00;99.90
12520;DHT22;6325;49.540;8.364;2024-01-25T10:20:44;11.00;99.90
12520;DHT22;6325;49.540;8.364;2024-01-25T10:23:11;10.90;99.90
12520;DHT22;6325;49.540;8.364;2024-01-25T10:25:38;10.90;99.90
12520;DHT22;6325;49.540;8.364;2024-01-25T10:28:06;11.30;99.90
12520;DHT22;6325;49.540;8.364;2024-01-25T10:30:34;10.30;99.90
12520;DHT22;6325;49.540;8.364;2024-01-25T10:33:03;11.30;99.90
12520;DHT22;6325;49.540;8.364;2024-01-25T10:35:31;11.10;99.90
12520;DHT22;6325;49.540;8.364;2024-01-25T10:37:58;10.80;99.90
12520;DHT22;6325;49.540;8.364;2024-01-25T10:40:26;11.60;99.90
12520;DHT22;6325;49.540;8.364;2024-01-25T10:42:53;11.80;99.90
12520;DHT22;6325;49.540;8.364;2024-01-25T10:45:20;11.10;99.90
12520;DHT22;6325;49.540;8.364;2024-01-25T10:47:48;11.90;99.90
12520;DHT22;6325;49.540;8.364;2024-01-25T10:50:16;11.70;99.90
12520;DHT22;6325;49.540;8.364;2024-01-25T10:52:44;11.80;99.90
12520;DHT22;6325;49.540;8.364;2024-01-25T10:55:11;11.60;99.90
12520;DHT22;6325;49.540;8.364;2024-01-25T10:57:42;11.90;99.90
12520;DHT22;6325;49.540;8.364;2024-01-25T11:00:10;12.10;99.90
12520;DHT22;6325;49.540;8.364;2024-01-25T11:02:39;11.50;99.90
12520;DHT22;6325;49.540;8.364;2024-01-25T11:05:08;11.80;99.90
12520;DHT22;6325;49.540;8.364;2024-01-25T11:07:43;11.60;99.90
12520;DHT22;6325;49.540;8.364;2024-01-25T11:10:13;11.80;99.90
12520;DHT22;6325;49.540;8.364;2024-01-25T11:12:50;11.90;99.90
12520;DHT22;6325;49.540;8.364;2024-01-25T11:15:20;12.40;99.90
12520;DHT22;6325;49.540;8.364;2024-01-25T11:17:51;12.00;99.90
12520;DHT22;6325;49.540;8.364;2024-01-25T11:20:23;11.80;99.90
12520;DHT22;6325;49.540;8.364;2024-01-25T11:22:56;11.80;99.90
12520;DHT22;6325;49.540;8.364;2024-01-25T11:25:27;12.00;99.90
12520;DHT22;6325;49.540;8.364;2024-01-25T11:27:53;12.10;99.90
12520;DHT22;6325;49.540;8.364;2024-01-25T11:30:20;12.10;99.90
12520;DHT22;6325;49.540;8.364;2024-01-25T11:32:48;12.60;99.90
12520;DHT22;6325;49.540;8.364;2024-01-25T11:35:15;12.70;99.90
12520;DHT22;6325;49.540;8.364;2024-01-25T11:37:43;13.70;99.90
12520;DHT22;6325;49.540;8.364;2024-01-25T11:40:13;13.40;99.90
12520;DHT22;6325;49.540;8.364;2024-01-25T11:42:42;13.80;99.90
12520;DHT22;6325;49.540;8.364;2024-01-25T11:45:11;13.90;99.90
12520;DHT22;6325;49.540;8.364;2024-01-25T11:47:38;14.00;99.90
12520;DHT22;6325;49.540;8.364;2024-01-25T11:50:06;14.20;99.90
12520;DHT22;6325;49.540;8.364;2024-01-25T11:52:33;13.80;99.90
12520;DHT22;6325;49.540;8.364;2024-01-25T11:55:01;13.60;99.90
12520;DHT22;6325;49.540;8.364;2024-01-25T11:57:30;13.70;99.90
12520;DHT22;6325;49.540;8.364;2024-01-25T11:59:58;13.60;99.90
12520;DHT22;6325;49.540;8.364;2024-01-25T12:02:26;13.80;99.90
12520;DHT22;6325;49.540;8.364;2024-01-25T12:04:53;13.70;99.90
12520;DHT22;6325;49.540;8.364;2024-01-25T12:07:21;14.00;99.90
12520;DHT22;6325;49.540;8.364;2024-01-25T12:09:57;14.10;99.90
12520;DHT22;6325;49.540;8.364;2024-01-25T12:12:24;14.40;99.90
12520;DHT22;6325;49.540;8.364;2024-01-25T12:14:57;14.40;99.90
12520;DHT22;6325;49.540;8.364;2024-01-25T12:17:25;15.20;99.90
12520;DHT22;6325;49.540;8.364;2024-01-25T12:19:54;15.30;99.90
12520;DHT22;6325;49.540;8.364;2024-01-25T12:22:21;15.70;99.90
12520;DHT22;6325;49.540;8.364;2024-01-25T12:24:50;15.20;99.90
12520;DHT22;6325;49.540;8.364;2024-01-25T12:27:17;14.90;99.90
12520;DHT22;6325;49.540;8.364;2024-01-25T12:29:44;15.00;99.90
12520;DHT22;6325;49.540;8.364;2024-01-25T12:32:12;14.70;99.90
12520;DHT22;6325;49.540;8.364;2024-01-25T12:34:39;14.90;99.90
12520;DHT22;6325;49.540;8.364;2024-01-25T12:37:06;14.40;99.90
12520;DHT22;6325;49.540;8.364;2024-01-25T12:39:33;14.20;99.90
12520;DHT22;6325;49.540;8.364;2024-01-25T12:42:00;13.80;99.90
12520;DHT22;6325;49.540;8.364;2024-01-25T12:44:27;13.50;99.90
12520;DHT22;6325;49.540;8.364;2024-01-25T12:46:54;13.40;99.90
12520;DHT22;6325;49.540;8.364;2024-01-25T12:49:22;14.50;99.90
12520;DHT22;6325;49.540;8.364;2024-01-25T12:51:49;15.30;99.90
12520;DHT22;6325;49.540;8.364;2024-01-25T12:54:16;15.70;99.90
12520;DHT22;6325;49.540;8.364;2024-01-25T12:56:42;16.80;99.90
12520;DHT22;6325;49.540;8.364;2024-01-25T12:59:09;17.10;99.90
12520;DHT22;6325;49.540;8.364;2024-01-25T13:01:36;17.60;99.90
12520;DHT22;6325;49.540;8.364;2024-01-25T13:04:03;17.80;99.90
12520;DHT22;6325;49.540;8.364;2024-01-25T13:06:33;17.60;99.90
12520;DHT22;6325;49.540;8.364;2024-01-25T13:09:00;17.00;99.90
12520;DHT22;6325;49.540;8.364;2024-01-25T13:11:26;16.30;99.90
12520;DHT22;6325;49.540;8.364;2024-01-25T13:13:53;15.50;99.90
12520;DHT22;6325;49.540;8.364;2024-01-25T13:16:20;15.40;99.90
12520;DHT22;6325;49.540;8.364;2024-01-25T13:18:47;14.40;99.90
12520;DHT22;6325;49.540;8.364;2024-01-25T13:21:14;15.30;99.90
12520;DHT22;6325;49.540;8.364;2024-01-25T13:23:42;14.10;99.90
12520;DHT22;6325;49.540;8.364;2024-01-25T13:26:08;15.20;99.90
12520;DHT22;6325;49.540;8.364;2024-01-25T13:28:35;14.70;99.90
12520;DHT22;6325;49.540;8.364;2024-01-25T13:31:02;14.80;99.90
12520;DHT22;6325;49.540;8.364;2024-01-25T13:33:29;14.00;99.90
12520;DHT22;6325;49.540;8.364;2024-01-25T13:35:56;13.90;99.90
12520;DHT22;6325;49.540;8.364;2024-01-25T13:38:23;13.70;99.90
12520;DHT22;6325;49.540;8.364;2024-01-25T13:40:51;13.40;99.90
12520;DHT22;6325;49.540;8.364;2024-01-25T13:43:18;12.80;99.90
12520;DHT22;6325;49.540;8.364;2024-01-25T13:45:45;13.00;99.90
12520;DHT22;6325;49.540;8.364;2024-01-25T13:48:12;13.80;99.90
12520;DHT22;6325;49.540;8.364;2024-01-25T13:50:39;13.30;99.90
12520;DHT22;6325;49.540;8.364;2024-01-25T13:53:05;13.30;99.90
12520;DHT22;6325;49.540;8.364;2024-01-25T13:55:32;13.20;99.90
12520;DHT22;6325;49.540;8.364;2024-01-25T13:58:00;12.80;99.90
12520;DHT22;6325;49.540;8.364;2024-01-25T14:00:27;13.30;99.90
12520;DHT22;6325;49.540;8.364;2024-01-25T14:02:54;13.50;99.90
12520;DHT22;6325;49.540;8.364;2024-01-25T14:05:21;12.30;99.90
12520;DHT22;6325;49.540;8.364;2024-01-25T14:07:49;12.90;99.90
12520;DHT22;6325;49.540;8.364;2024-01-25T14:10:17;13.00;99.90
12520;DHT22;6325;49.540;8.364;2024-01-25T14:12:45;12.90;99.90
12520;DHT22;6325;49.540;8.364;2024-01-25T14:15:14;12.80;99.90
12520;DHT22;6325;49.540;8.364;2024-01-25T14:17:41;13.20;99.90
12520;DHT22;6325;49.540;8.364;2024-01-25T14:20:08;12.90;99.90
12520;DHT22;6325;49.540;8.364;2024-01-25T14:22:35;12.60;99.90
12520;DHT22;6325;49.540;8.364;2024-01-25T14:25:02;12.30;99.90
12520;DHT22;6325;49.540;8.364;2024-01-25T14:27:29;13.00;99.90
12520;DHT22;6325;49.540;8.364;2024-01-25T14:29:56;12.60;99.90
12520;DHT22;6325;49.540;8.364;2024-01-25T14:32:24;12.90;99.90
12520;DHT22;6325;49.540;8.364;2024-01-25T14:34:51;12.50;99.90
12520;DHT22;6325;49.540;8.364;2024-01-25T14:37:17;12.60;99.90
12520;DHT22;6325;49.540;8.364;2024-01-25T14:39:45;12.50;99.90
12520;DHT22;6325;49.540;8.364;2024-01-25T14:42:12;12.40;99.90
12520;DHT22;6325;49.540;8.364;2024-01-25T14:44:42;12.40;99.90
12520;DHT22;6325;49.540;8.364;2024-01-25T14:47:09;12.10;99.90
12520;DHT22;6325;49.540;8.364;2024-01-25T14:49:38;12.40;99.90
12520;DHT22;6325;49.540;8.364;2024-01-25T14:52:07;12.30;99.90
12520;DHT22;6325;49.540;8.364;2024-01-25T14:54:33;12.30;99.90
12520;DHT22;6325;49.540;8.364;2024-01-25T14:57:01;12.10;99.90
12520;DHT22;6325;49.540;8.364;2024-01-25T14:59:28;12.20;99.90
12520;DHT22;6325;49.540;8.364;2024-01-25T15:01:54;11.80;99.90
12520;DHT22;6325;49.540;8.364;2024-01-25T15:04:21;11.80;99.90
12520;DHT22;6325;49.540;8.364;2024-01-25T15:09:24;12.20;99.90
12520;DHT22;6325;49.540;8.364;2024-01-25T15:11:51;12.00;99.90
12520;DHT22;6325;49.540;8.364;2024-01-25T15:14:18;11.80;99.90
12520;DHT22;6325;49.540;8.364;2024-01-25T15:16:45;11.70;99.90
12520;DHT22;6325;49.540;8.364;2024-01-25T15:19:11;11.80;99.90
12520;DHT22;6325;49.540;8.364;2024-01-25T15:21:38;12.10;99.90
12520;DHT22;6325;49.540;8.364;2024-01-25T15:24:05;11.40;99.90
12520;DHT22;6325;49.540;8.364;2024-01-25T15:26:33;11.60;99.90
12520;DHT22;6325;49.540;8.364;2024-01-25T15:29:01;11.20;99.90
12520;DHT22;6325;49.540;8.364;2024-01-25T15:31:28;11.60;99.90
12520;DHT22;6325;49.540;8.364;2024-01-25T15:33:55;11.70;99.90
12520;DHT22;6325;49.540;8.364;2024-01-25T15:36:21;11.50;99.90
12520;DHT22;6325;49.540;8.364;2024-01-25T15:38:48;11.60;99.90
12520;DHT22;6325;49.540;8.364;2024-01-25T15:41:15;11.80;99.90
12520;DHT22;6325;49.540;8.364;2024-01-25T15:43:45;11.00;99.90
12520;DHT22;6325;49.540;8.364;2024-01-25T15:46:12;11.90;99.90
12520;DHT22;6325;49.540;8.364;2024-01-25T15:48:39;10.80;99.90
12520;DHT22;6325;49.540;8.364;2024-01-25T15:51:06;11.30;99.90
12520;DHT22;6325;49.540;8.364;2024-01-25T15:53:33;11.60;99.90
12520;DHT22;6325;49.540;8.364;2024-01-25T15:55:59;11.70;99.90
12520;DHT22;6325;49.540;8.364;2024-01-25T15:58:27;11.30;99.90
12520;DHT22;6325;49.540;8.364;2024-01-25T16:00:55;11.30;99.90
12520;DHT22;6325;49.540;8.364;2024-01-25T16:03:22;10.60;99.90
12520;DHT22;6325;49.540;8.364;2024-01-25T16:05:49;11.80;99.90
12520;DHT22;6325;49.540;8.364;2024-01-25T16:08:18;11.20;99.90
12520;DHT22;6325;49.540;8.364;2024-01-25T16:10:45;11.20;99.90
12520;DHT22;6325;49.540;8.364;2024-01-25T16:13:13;11.80;99.90